Terminal Aerodrome Forecast
Issued by NWS

Current Version | Previous Version | Text Only | Print | Product List | Glossary On
Versions: 1 2 3 4 5 6 7 8 9 10 11 12 13 14 15 16 17 18 19 20 21 22 23 24
000
FTUS45 KGJT 262336
TAFASE
TAF
KASE 262336Z 2700/2724 17008KT P6SM SCT100
     FM270800 17006KT P6SM SCT090 WS020/23030KT
     FM271200 17005KT P6SM VCSH BKN050 WS020/23030KT
     FM271600 20006KT P6SM VCSH BKN040 WS020/23035KT
     FM272200 22010KT 4SM -SHSN BKN025 WS020/23045KT
     FM272300 22007KT 2SM -SHSN OVC020 WS015/23030KT=

USA.gov is the U.S. government's official web portal to all federal, state and local government web resources and services.